Time;durP1;ratioP1;P1;durP2;ratioP2;P2;SDS_P1;SDS_P2;PMS_P1;PMS_P2;Temp;Humidity;BMP_temperature;BMP_pressure;BME280_temperature;BME280_humidity;BME280_pressure;Samples;Min_cycle;Max_cycle;Signal;HPM_P1;HPM_P2
2019/11/18 00:02:18;;;;;;;18.8;13.8;;;;;;;;;;;;;
2019/11/18 00:04:39;;;;;;;18.5;14;;;;;;;;;;;;;
2019/11/18 00:07:05;;;;;;;18.9;14.2;;;;;;;;;;;;;
2019/11/18 00:09:29;;;;;;;18.5;14;;;;;;;;;;;;;
2019/11/18 00:11:57;;;;;;;19.5;14.3;;;;;;;;;;;;;
2019/11/18 00:14:19;;;;;;;18.6;14.2;;;;;;;;;;;;;
2019/11/18 00:19:16;;;;;;;19.4;13.8;;;;;;;;;;;;;
2019/11/18 00:21:40;;;;;;;18.6;13.9;;;;;;;;;;;;;
2019/11/18 00:24:06;;;;;;;19.4;14.4;;;;;;;;;;;;;
2019/11/18 00:26:32;;;;;;;19.5;14.2;;;;;;;;;;;;;
2019/11/18 00:28:56;;;;;;;21.2;15.4;;;;;;;;;;;;;
2019/11/18 00:31:21;;;;;;;21.5;14.9;;;;;;;;;;;;;
2019/11/18 00:33:50;;;;;;;23.3;15.9;;;;;;;;;;;;;
2019/11/18 00:36:13;;;;;;;22.1;15.2;;;;;;;;;;;;;
2019/11/18 00:38:36;;;;;;;22.6;16.2;;;;;;;;;;;;;
2019/11/18 00:41:02;;;;;;;20.2;15.4;;;;;;;;;;;;;
2019/11/18 00:43:26;;;;;;;20.7;15.5;;;;;;;;;;;;;
2019/11/18 00:45:54;;;;;;;21.4;15.5;;;;;;;;;;;;;
2019/11/18 00:48:27;;;;;;;22.6;16;;;;;;;;;;;;;
2019/11/18 00:50:54;;;;;;;19.8;15.3;;;;;;;;;;;;;
2019/11/18 00:53:21;;;;;;;22.9;16.4;;;;;;;;;;;;;
2019/11/18 00:55:44;;;;;;;20.7;15.6;;;;;;;;;;;;;
2019/11/18 00:58:09;;;;;;;19.8;14.8;;;;;;;;;;;;;
2019/11/18 01:00:36;;;;;;;21.9;15.6;;;;;;;;;;;;;
2019/11/18 01:03:00;;;;;;;20.8;15.2;;;;;;;;;;;;;
2019/11/18 01:05:26;;;;;;;21.7;16.6;;;;;;;;;;;;;
2019/11/18 01:07:51;;;;;;;22.1;16.1;;;;;;;;;;;;;
2019/11/18 01:10:15;;;;;;;21.4;16.2;;;;;;;;;;;;;
2019/11/18 01:12:46;;;;;;;20;16.1;;;;;;;;;;;;;
2019/11/18 01:15:13;;;;;;;21;16.2;;;;;;;;;;;;;
2019/11/18 01:17:42;;;;;;;20.1;15.8;;;;;;;;;;;;;
2019/11/18 01:20:18;;;;;;;23.2;16.6;;;;;;;;;;;;;
2019/11/18 01:22:29;;;;;;;21.6;16.6;;;;;;;;;;;;;
2019/11/18 01:24:58;;;;;;;21.9;16.1;;;;;;;;;;;;;
2019/11/18 01:27:20;;;;;;;20;16;;;;;;;;;;;;;
2019/11/18 01:29:45;;;;;;;19.2;15.4;;;;;;;;;;;;;
2019/11/18 01:32:10;;;;;;;21.1;16;;;;;;;;;;;;;
2019/11/18 01:34:37;;;;;;;20.2;16.3;;;;;;;;;;;;;
2019/11/18 01:37:00;;;;;;;20;15.6;;;;;;;;;;;;;
2019/11/18 01:39:27;;;;;;;19.2;15.7;;;;;;;;;;;;;
2019/11/18 01:41:55;;;;;;;21.4;16.6;;;;;;;;;;;;;
2019/11/18 01:44:18;;;;;;;20.2;15.4;;;;;;;;;;;;;
2019/11/18 01:46:43;;;;;;;18.7;16.1;;;;;;;;;;;;;
2019/11/18 01:49:07;;;;;;;20.2;15.7;;;;;;;;;;;;;
2019/11/18 01:51:33;;;;;;;23;17.3;;;;;;;;;;;;;
2019/11/18 01:54:01;;;;;;;22.3;17;;;;;;;;;;;;;
2019/11/18 01:56:23;;;;;;;21.2;16.7;;;;;;;;;;;;;
2019/11/18 01:58:50;;;;;;;20.4;16.7;;;;;;;;;;;;;
2019/11/18 02:01:30;;;;;;;21.7;18.4;;;;;;;;;;;;;
2019/11/18 02:03:56;;;;;;;20.8;17.2;;;;;;;;;;;;;
2019/11/18 02:06:27;;;;;;;22.2;18.4;;;;;;;;;;;;;
2019/11/18 02:08:50;;;;;;;20.2;17.6;;;;;;;;;;;;;
2019/11/18 02:11:17;;;;;;;22.2;18.5;;;;;;;;;;;;;
2019/11/18 02:13:42;;;;;;;22.6;18;;;;;;;;;;;;;
2019/11/18 02:16:06;;;;;;;20.6;17.9;;;;;;;;;;;;;
2019/11/18 02:18:33;;;;;;;20.3;17.4;;;;;;;;;;;;;
2019/11/18 02:20:57;;;;;;;22.3;18.4;;;;;;;;;;;;;
2019/11/18 02:23:23;;;;;;;20.4;17.3;;;;;;;;;;;;;
2019/11/18 02:28:19;;;;;;;19.2;16.3;;;;;;;;;;;;;
2019/11/18 02:30:45;;;;;;;19.6;16.3;;;;;;;;;;;;;
2019/11/18 02:33:34;;;;;;;20;16.9;;;;;;;;;;;;;
2019/11/18 02:35:39;;;;;;;20.2;17.7;;;;;;;;;;;;;
2019/11/18 02:38:21;;;;;;;18.6;16.6;;;;;;;;;;;;;
2019/11/18 02:40:47;;;;;;;21;17.5;;;;;;;;;;;;;
2019/11/18 02:43:14;;;;;;;19.6;17.2;;;;;;;;;;;;;
2019/11/18 02:45:37;;;;;;;19.5;17.3;;;;;;;;;;;;;
2019/11/18 02:48:04;;;;;;;19.2;17.2;;;;;;;;;;;;;
2019/11/18 02:50:28;;;;;;;20.1;18;;;;;;;;;;;;;
2019/11/18 02:53:01;;;;;;;20.7;18.5;;;;;;;;;;;;;
2019/11/18 02:55:27;;;;;;;20.5;18.3;;;;;;;;;;;;;
2019/11/18 02:57:52;;;;;;;21.3;18.7;;;;;;;;;;;;;
2019/11/18 03:00:17;;;;;;;19.6;17.6;;;;;;;;;;;;;
2019/11/18 03:05:12;;;;;;;19;17.1;;;;;;;;;;;;;
2019/11/18 03:07:36;;;;;;;19.7;17.7;;;;;;;;;;;;;
2019/11/18 03:10:03;;;;;;;20.5;18.4;;;;;;;;;;;;;
2019/11/18 03:12:27;;;;;;;19.3;17.4;;;;;;;;;;;;;
2019/11/18 03:14:52;;;;;;;19.9;18;;;;;;;;;;;;;
2019/11/18 03:17:24;;;;;;;21.2;19.1;;;;;;;;;;;;;
2019/11/18 03:19:51;;;;;;;20.5;18.5;;;;;;;;;;;;;
2019/11/18 03:22:20;;;;;;;21.2;19.1;;;;;;;;;;;;;
2019/11/18 03:24:41;;;;;;;21.9;19.7;;;;;;;;;;;;;
2019/11/18 03:27:08;;;;;;;20.9;19;;;;;;;;;;;;;
2019/11/18 03:29:32;;;;;;;20.6;18.6;;;;;;;;;;;;;
2019/11/18 03:32:02;;;;;;;22.9;20.7;;;;;;;;;;;;;
2019/11/18 03:34:24;;;;;;;22.2;20;;;;;;;;;;;;;
2019/11/18 03:36:50;;;;;;;23.4;21.2;;;;;;;;;;;;;
2019/11/18 03:39:19;;;;;;;21.8;19.7;;;;;;;;;;;;;
2019/11/18 03:41:40;;;;;;;22.6;20.4;;;;;;;;;;;;;
2019/11/18 03:44:08;;;;;;;22;19.9;;;;;;;;;;;;;
2019/11/18 03:46:35;;;;;;;22.2;20.1;;;;;;;;;;;;;
2019/11/18 03:48:58;;;;;;;20.7;18.8;;;;;;;;;;;;;
2019/11/18 03:51:24;;;;;;;23;20.8;;;;;;;;;;;;;
2019/11/18 03:53:55;;;;;;;23.3;21;;;;;;;;;;;;;
2019/11/18 03:56:19;;;;;;;22.3;20.2;;;;;;;;;;;;;
2019/11/18 03:58:43;;;;;;;22.3;20.1;;;;;;;;;;;;;
2019/11/18 04:02:34;;;;;;;23.7;21.4;;;;;;;4.92;88.10547;926.9191;;;;
2019/11/18 04:05:00;;;;;;;23.1;20.9;;;;;;;5;87.90723;926.9067;;;;
2019/11/18 04:07:31;;;;;;;23.3;21.1;;;;;;;5.09;87.43945;926.8157;;;;
2019/11/18 04:09:56;;;;;;;21.1;19.1;;;;;;;5.08;86.81738;926.8408;;;;
2019/11/18 04:12:26;;;;;;;22.6;20.5;;;;;;;4.95;87.5791;926.8642;;;;
2019/11/18 04:14:51;;;;;;;21.8;19.8;;;;;;;4.97;87.6748;926.9268;;;;
2019/11/18 04:17:21;;;;;;;21.2;19.2;;;;;;;5.04;87.20508;926.9603;;;;
2019/11/18 04:19:56;;;;;;;22;19.8;;;;;;;4.99;87.21484;926.9372;;;;
2019/11/18 04:22:29;;;;;;;21.8;19.8;;;;;;;4.77;87.72266;926.9808;;;;
2019/11/18 04:24:56;;;;;;;21.7;19.6;;;;;;;4.75;88.13672;926.8687;;;;
2019/11/18 04:27:19;;;;;;;21.5;19.5;;;;;;;4.72;88.1875;926.8621;;;;
2019/11/18 04:29:47;;;;;;;23.2;21;;;;;;;4.66;88.79395;927.0237;;;;
2019/11/18 04:32:20;;;;;;;23.4;21.3;;;;;;;4.72;88.91992;926.9511;;;;
2019/11/18 04:34:38;;;;;;;23.2;20.9;;;;;;;4.74;88.45996;926.9781;;;;
2019/11/18 04:37:10;;;;;;;23.1;20.9;;;;;;;4.61;88.61426;927.1129;;;;
2019/11/18 04:39:38;;;;;;;23.3;21.1;;;;;;;4.59;88.74707;927.0549;;;;
2019/11/18 04:42:11;;;;;;;23.6;21.2;;;;;;;4.61;88.67969;927.1467;;;;
2019/11/18 04:44:36;;;;;;;24;21.8;;;;;;;4.72;88.37988;927.2381;;;;
2019/11/18 04:47:06;;;;;;;22.7;20.6;;;;;;;4.7;88.35156;927.2371;;;;
2019/11/18 04:49:30;;;;;;;23.5;21.3;;;;;;;4.66;88.44531;927.2697;;;;
2019/11/18 04:52:01;;;;;;;22.3;20.3;;;;;;;4.74;88.03223;927.3337;;;;
2019/11/18 04:54:32;;;;;;;23.1;21;;;;;;;4.79;87.99609;927.3138;;;;
2019/11/18 04:56:57;;;;;;;24.2;21.9;;;;;;;4.83;87.9043;927.3683;;;;
2019/11/18 04:59:22;;;;;;;22.9;20.6;;;;;;;4.84;87.6709;927.3914;;;;
2019/11/18 05:01:54;;;;;;;24.3;22;;;;;;;4.91;87.81934;927.3653;;;;
2019/11/18 05:04:23;;;;;;;23.1;20.9;;;;;;;4.99;87.30664;927.4113;;;;
2019/11/18 05:06:53;;;;;;;23.1;20.8;;;;;;;5.05;86.8125;927.5489;;;;
2019/11/18 05:09:21;;;;;;;22.5;20.3;;;;;;;5;86.84766;927.5961;;;;
2019/11/18 05:12:03;;;;;;;20.6;18.7;;;;;;;5.06;86.02344;927.6066;;;;
2019/11/18 05:14:27;;;;;;;20.6;18.6;;;;;;;5;86.37305;927.6016;;;;
2019/11/18 05:17:02;;;;;;;20.4;18.5;;;;;;;4.87;86.60645;927.6259;;;;
2019/11/18 05:19:21;;;;;;;20.5;18.6;;;;;;;5.06;86.34961;927.5908;;;;
2019/11/18 05:21:50;;;;;;;19.7;17.9;;;;;;;5.02;85.95898;927.5792;;;;
2019/11/18 05:24:19;;;;;;;19.8;18;;;;;;;5;86.27148;927.6671;;;;
2019/11/18 05:29:14;;;;;;;20.3;18.4;;;;;;;4.78;86.42871;927.842;;;;
2019/11/18 05:31:40;;;;;;;19.9;18.1;;;;;;;4.79;86.88281;927.8588;;;;
2019/11/18 05:34:14;;;;;;;20;18.1;;;;;;;4.83;86.21387;927.8975;;;;
2019/11/18 05:36:42;;;;;;;19.8;18;;;;;;;4.73;86.70117;927.869;;;;
2019/11/18 05:39:15;;;;;;;20.8;18.9;;;;;;;4.82;86.31543;927.9139;;;;
2019/11/18 05:41:52;;;;;;;20.4;18.6;;;;;;;4.51;86.79004;927.9529;;;;
2019/11/18 05:44:17;;;;;;;20.9;19;;;;;;;4.51;87.17676;927.9932;;;;
2019/11/18 05:46:44;;;;;;;21.8;19.6;;;;;;;4.68;86.89258;928.0179;;;;
2019/11/18 05:49:11;;;;;;;21.4;19.4;;;;;;;4.81;86.37988;928.0242;;;;
2019/11/18 05:51:38;;;;;;;22.3;20.2;;;;;;;4.86;86.16309;928.0619;;;;
2019/11/18 05:54:07;;;;;;;21.2;19.2;;;;;;;4.82;86.26855;928.1394;;;;
2019/11/18 05:56:32;;;;;;;22.2;20;;;;;;;4.82;86.4375;928.1796;;;;
2019/11/18 05:58:58;;;;;;;22.5;20.4;;;;;;;4.85;85.76855;928.2234;;;;
2019/11/18 06:01:29;;;;;;;22.5;20.3;;;;;;;4.88;86.41699;928.2427;;;;
2019/11/18 06:03:54;;;;;;;22.9;20.8;;;;;;;4.95;86.64551;928.2241;;;;
2019/11/18 06:06:21;;;;;;;23.4;21.2;;;;;;;4.99;86.67383;928.283;;;;
2019/11/18 06:08:46;;;;;;;21.7;19.6;;;;;;;4.97;86.35449;928.2969;;;;
2019/11/18 06:11:11;;;;;;;257.1;145.9;;;;;;;4.99;86.40527;928.2388;;;;
2019/11/18 06:13:43;;;;;;;76.2;49.2;;;;;;;5.04;86.08691;928.3069;;;;
2019/11/18 06:16:05;;;;;;;29.9;25.5;;;;;;;5.1;85.58301;928.3455;;;;
2019/11/18 06:18:40;;;;;;;24.1;21.7;;;;;;;5.17;85.22559;928.3536;;;;
2019/11/18 06:20:57;;;;;;;24;21.7;;;;;;;5.16;84.96289;928.2832;;;;
2019/11/18 06:23:23;;;;;;;23.5;20.9;;;;;;;5.21;84.74609;928.3441;;;;
2019/11/18 06:26:16;;;;;;;20.5;18.5;;;;;;;5.12;84.9668;928.4326;;;;
2019/11/18 06:28:40;;;;;;;19.3;17.5;;;;;;;4.93;85.63672;928.5172;;;;
2019/11/18 06:31:10;;;;;;;20.1;18.1;;;;;;;4.99;85.35645;928.5961;;;;
2019/11/18 06:33:43;;;;;;;21.5;19.5;;;;;;;5.09;85.13965;928.586;;;;
2019/11/18 06:36:09;;;;;;;21.9;19.8;;;;;;;5.1;85.16602;928.4726;;;;
2019/11/18 06:38:42;;;;;;;25;22.5;;;;;;;5.07;85.02344;928.6584;;;;
2019/11/18 06:41:16;;;;;;;22.8;20.6;;;;;;;5.07;84.59277;928.6638;;;;
2019/11/18 06:43:45;;;;;;;21;19;;;;;;;5.09;85.20703;928.6767;;;;
2019/11/18 06:46:14;;;;;;;21.7;19.7;;;;;;;5.11;84.52539;928.6479;;;;
2019/11/18 06:48:50;;;;;;;21.4;19.4;;;;;;;5.02;84.41699;928.6844;;;;
2019/11/18 06:51:10;;;;;;;23.3;21.1;;;;;;;4.65;86.4834;928.8195;;;;
2019/11/18 06:53:39;;;;;;;23.5;21.2;;;;;;;4.8;86.40039;928.8627;;;;
2019/11/18 06:56:11;;;;;;;24.2;21.9;;;;;;;4.81;86.3457;928.9807;;;;
2019/11/18 06:58:40;;;;;;;26;23.5;;;;;;;4.77;86.83398;928.9292;;;;
2019/11/18 07:01:03;;;;;;;25.5;23;;;;;;;4.78;86.94824;928.9089;;;;
2019/11/18 07:03:37;;;;;;;24.7;22.3;;;;;;;4.89;87.10547;928.9835;;;;
2019/11/18 07:06:12;;;;;;;22.8;20.5;;;;;;;5;86.16992;929.0104;;;;
2019/11/18 07:08:40;;;;;;;22.1;19.9;;;;;;;5.09;86.25391;929.0428;;;;
2019/11/18 07:11:08;;;;;;;16.7;15.2;;;;;;;5.3;84.20117;928.9483;;;;
2019/11/18 07:13:36;;;;;;;17.1;15.5;;;;;;;5.54;83.50293;929.097;;;;
2019/11/18 07:16:10;;;;;;;15.7;14.2;;;;;;;5.81;82.38184;929.0513;;;;
2019/11/18 07:18:36;;;;;;;13.3;12;;;;;;;6.27;80.85156;929.175;;;;
2019/11/18 07:21:13;;;;;;;12.1;10.9;;;;;;;7.12;78.31836;929.2314;;;;
2019/11/18 07:23:41;;;;;;;11.2;10.2;;;;;;;7.83;75.80469;929.2219;;;;
2019/11/18 07:26:08;;;;;;;11.4;10.3;;;;;;;8.31;73.57129;929.2394;;;;
2019/11/18 07:28:41;;;;;;;10.2;9.2;;;;;;;9.08;69.35645;929.3423;;;;
2019/11/18 07:31:18;;;;;;;9.8;8.9;;;;;;;9.93;66.70898;929.3536;;;;
2019/11/18 07:33:43;;;;;;;11;9.9;;;;;;;10.95;63.63574;929.3067;;;;
2019/11/18 07:36:14;;;;;;;13.1;11.9;;;;;;;11.35;61.58789;929.3912;;;;
2019/11/18 07:38:38;;;;;;;13.2;11.8;;;;;;;10.46;63.43652;929.5095;;;;
2019/11/18 07:41:07;;;;;;;15.3;13.8;;;;;;;9.58;65.31348;929.5317;;;;
2019/11/18 07:43:32;;;;;;;12;10.8;;;;;;;9.13;67.45313;929.6409;;;;
2019/11/18 07:46:06;;;;;;;12.9;11.6;;;;;;;8.84;68.875;929.668;;;;
2019/11/18 07:48:41;;;;;;;14.1;11.6;;;;;;;8.71;69.34082;929.6348;;;;
2019/11/18 07:51:12;;;;;;;13.1;11.7;;;;;;;8.53;70.05176;929.6786;;;;
2019/11/18 07:53:39;;;;;;;13.1;11.7;;;;;;;8.34;69.72559;929.7514;;;;
2019/11/18 07:56:06;;;;;;;13.6;12.3;;;;;;;8.18;71.37988;929.8254;;;;
2019/11/18 08:01:03;;;;;;;14.5;13;;;;;;;7.94;70.93066;930.0023;;;;
2019/11/18 08:03:30;;;;;;;14.5;13.1;;;;;;;7.6;73.17773;929.9885;;;;
2019/11/18 08:05:57;;;;;;;12.6;11.4;;;;;;;7.55;74.39453;929.9344;;;;
2019/11/18 08:08:33;;;;;;;13;11.7;;;;;;;7.46;75.06836;929.9749;;;;
2019/11/18 08:11:04;;;;;;;13.7;12.2;;;;;;;7.35;74.54004;929.9634;;;;
2019/11/18 08:13:37;;;;;;;14.9;12.3;;;;;;;7.15;74.91309;929.8909;;;;
2019/11/18 08:16:00;;;;;;;14.1;12.5;;;;;;;6.97;75.80957;930.0212;;;;
2019/11/18 08:18:32;;;;;;;16.6;14.8;;;;;;;7.01;76.1123;930.0734;;;;
2019/11/18 08:21:04;;;;;;;16.8;14.6;;;;;;;7.12;75.62207;930.1061;;;;
2019/11/18 08:23:35;;;;;;;15.4;12.9;;;;;;;7.22;74.90332;930.0875;;;;
2019/11/18 08:26:10;;;;;;;14.5;12.6;;;;;;;7.24;74.52051;930.041;;;;
2019/11/18 08:28:31;;;;;;;14.2;12.3;;;;;;;7.28;74.74219;930.0935;;;;
2019/11/18 08:31:15;;;;;;;14.9;12.8;;;;;;;7.38;73.93359;930.0943;;;;
2019/11/18 08:33:33;;;;;;;13.8;12.4;;;;;;;7.49;74.08887;930.1002;;;;
2019/11/18 08:36:06;;;;;;;13.2;11.8;;;;;;;7.65;73.37793;930.1428;;;;
2019/11/18 08:38:38;;;;;;;12.7;11.4;;;;;;;7.8;72.58887;930.1035;;;;
2019/11/18 08:41:04;;;;;;;11.4;10.2;;;;;;;7.95;71.2627;930.149;;;;
2019/11/18 08:43:26;;;;;;;11;9.9;;;;;;;8.06;71.62109;930.2198;;;;
2019/11/18 08:45:58;;;;;;;10.4;9.4;;;;;;;7.78;71.94922;930.1089;;;;
2019/11/18 08:48:26;;;;;;;10.4;9.3;;;;;;;8.18;71.5498;930.0903;;;;
2019/11/18 08:50:57;;;;;;;10.8;9.4;;;;;;;8.46;70.15332;930.1194;;;;
2019/11/18 08:53:25;;;;;;;10;9;;;;;;;8.63;68.20313;930.1592;;;;
2019/11/18 08:56:11;;;;;;;9.1;8.2;;;;;;;8.59;68.58398;930.2072;;;;
2019/11/18 08:58:47;;;;;;;9.2;8.3;;;;;;;9.01;67.68359;930.2355;;;;
2019/11/18 09:01:08;;;;;;;9.1;8.3;;;;;;;9.02;65.99121;930.2942;;;;
2019/11/18 09:03:46;;;;;;;8.8;7.9;;;;;;;8.89;65.98145;930.2737;;;;
2019/11/18 09:06:22;;;;;;;8.7;7.9;;;;;;;9.19;67.5752;930.2787;;;;
2019/11/18 09:08:48;;;;;;;9.3;8.4;;;;;;;9.3;68.75293;930.3085;;;;
2019/11/18 09:11:19;;;;;;;9.3;8.3;;;;;;;9.25;67.25586;930.3386;;;;
2019/11/18 09:13:51;;;;;;;8.9;8.1;;;;;;;9.32;67.20801;930.3434;;;;
2019/11/18 09:16:38;;;;;;;9.4;8.4;;;;;;;9.45;66.70605;930.3574;;;;
2019/11/18 09:19:17;;;;;;;8.8;7.9;;;;;;;9.72;65.31055;930.314;;;;
2019/11/18 09:21:59;;;;;;;7.9;7.2;;;;;;;9.7;64.84082;930.411;;;;
2019/11/18 09:24:24;;;;;;;8.3;7.5;;;;;;;9.78;65.28516;930.4412;;;;
2019/11/18 09:26:51;;;;;;;11.7;9;;;;;;;9.89;67.25195;930.5503;;;;
2019/11/18 09:29:16;;;;;;;8.3;7.3;;;;;;;9.87;65.29883;930.5662;;;;
2019/11/18 09:31:55;;;;;;;7.6;6.7;;;;;;;10.02;65.6543;930.5386;;;;
2019/11/18 09:34:27;;;;;;;12.6;8.5;;;;;;;10.3;66.00488;930.4941;;;;
2019/11/18 09:36:50;;;;;;;7.7;7;;;;;;;10.29;64.96191;930.5483;;;;
2019/11/18 09:39:44;;;;;;;8.1;7.3;;;;;;;9.83;65.72754;930.5876;;;;
2019/11/18 09:41:55;;;;;;;8.6;7.8;;;;;;;9.96;65.63281;930.6934;;;;
2019/11/18 09:44:27;;;;;;;9.3;8.4;;;;;;;9.9;65.63477;930.66;;;;
2019/11/18 09:46:58;;;;;;;8.9;8;;;;;;;9.87;64.08984;930.5773;;;;
2019/11/18 09:49:32;;;;;;;8.9;8;;;;;;;9.79;64.23926;930.5699;;;;
2019/11/18 09:52:00;;;;;;;8.6;7.8;;;;;;;9.81;66.23633;930.579;;;;
2019/11/18 09:54:29;;;;;;;9.8;8.2;;;;;;;9.75;65.33887;930.6216;;;;
2019/11/18 09:57:14;;;;;;;9.1;8.2;;;;;;;9.7;66.54883;930.5898;;;;
2019/11/18 09:59:45;;;;;;;9.1;8.2;;;;;;;9;67.97754;930.6393;;;;
2019/11/18 10:02:03;;;;;;;9.8;7.6;;;;;;;8.9;67.81445;930.7065;;;;
2019/11/18 10:04:38;;;;;;;9;7.3;;;;;;;9.04;67.76855;930.7025;;;;
2019/11/18 10:07:13;;;;;;;7;6.3;;;;;;;8.99;67.46387;930.6353;;;;
2019/11/18 10:10:18;;;;;;;6.4;5.8;;;;;;;9.15;66.625;930.6638;;;;
2019/11/18 10:12:42;;;;;;;6.6;5.9;;;;;;;9.28;63.65039;930.5952;;;;
2019/11/18 10:15:10;;;;;;;6.5;5.9;;;;;;;9.35;63.80859;930.6082;;;;
2019/11/18 10:20:07;;;;;;;4.9;3.7;;;;;;;9.25;63.57813;930.7175;;;;
2019/11/18 10:22:32;;;;;;;4.3;3.9;;;;;;;9.27;62.55566;930.7731;;;;
2019/11/18 10:25:01;;;;;;;4;3.6;;;;;;;9.09;63.47266;930.7017;;;;
2019/11/18 10:27:42;;;;;;;3.5;3.2;;;;;;;8.87;63.22656;930.677;;;;
2019/11/18 10:30:08;;;;;;;4.3;3.3;;;;;;;8.96;64.22949;930.6265;;;;
2019/11/18 10:32:38;;;;;;;3.8;2.9;;;;;;;9.17;62.86035;930.5988;;;;
2019/11/18 10:35:06;;;;;;;4;3.4;;;;;;;9.42;61.43848;930.556;;;;
2019/11/18 10:37:45;;;;;;;3.1;2.8;;;;;;;9.58;60.5498;930.6459;;;;
2019/11/18 10:40:15;;;;;;;3.9;3.2;;;;;;;9.75;60.6875;930.5588;;;;
2019/11/18 10:42:42;;;;;;;4.2;3.5;;;;;;;9.48;61.66504;930.6141;;;;
2019/11/18 10:45:18;;;;;;;3.4;3.1;;;;;;;9.25;62.40527;930.6389;;;;
2019/11/18 10:47:48;;;;;;;3.9;3.6;;;;;;;9.12;62.66992;930.6716;;;;
2019/11/18 10:50:16;;;;;;;6.5;3.5;;;;;;;8.83;63.19824;930.6475;;;;
2019/11/18 10:52:54;;;;;;;14.2;4;;;;;;;8.5;66.44434;930.7202;;;;
2019/11/18 10:55:17;;;;;;;6.9;3.2;;;;;;;8.64;64.02148;930.683;;;;
2019/11/18 10:57:49;;;;;;;3.8;2.8;;;;;;;8.48;65.30469;930.7415;;;;
2019/11/18 11:00:13;;;;;;;3.3;2.6;;;;;;;8.2;63.71777;930.712;;;;
2019/11/18 11:02:56;;;;;;;2.8;2.3;;;;;;;8.07;64.66406;930.6677;;;;
2019/11/18 11:05:21;;;;;;;4;3;;;;;;;8.23;63.37109;930.6777;;;;
2019/11/18 11:08:14;;;;;;;4.3;3.2;;;;;;;8.28;64.53613;930.5899;;;;
2019/11/18 11:10:53;;;;;;;3.9;3.2;;;;;;;8.56;64.83887;930.6292;;;;
2019/11/18 11:13:28;;;;;;;4.6;3.6;;;;;;;8.76;63.62012;930.6422;;;;
2019/11/18 11:17:21;;;;;;;3.8;3.1;;;;;;;9.02;63.67969;930.6397;;;;
2019/11/18 11:20:56;;;;;;;4.7;3.2;;;;;;;9.37;61.3418;930.5779;;;;
2019/11/18 11:23:20;;;;;;;5.3;2.8;;;;;;;9.45;61.30664;930.579;;;;
2019/11/18 11:25:54;;;;;;;4.4;2.9;;;;;;;9.76;59.73145;930.5795;;;;
2019/11/18 11:28:22;;;;;;;3.2;2.8;;;;;;;9.95;57.92188;930.5995;;;;
2019/11/18 11:30:57;;;;;;;3.2;2.6;;;;;;;11.61;54.35645;930.5869;;;;
2019/11/18 11:33:27;;;;;;;4;2.8;;;;;;;13.83;47.52539;930.5995;;;;
2019/11/18 11:35:51;;;;;;;2.8;2.2;;;;;;;15.56;43.02441;930.6451;;;;
2019/11/18 11:38:17;;;;;;;3.6;2.3;;;;;;;17.75;38.68848;930.6436;;;;
2019/11/18 11:40:49;;;;;;;2.2;2;;;;;;;20.13;34.04395;930.6516;;;;
2019/11/18 11:43:17;;;;;;;2.2;2;;;;;;;22.03;31.04883;930.7182;;;;
2019/11/18 11:45:44;;;;;;;2.3;2;;;;;;;22.49;29.53125;930.707;;;;
2019/11/18 11:48:12;;;;;;;2.8;1.9;;;;;;;23.7;28.51855;930.7363;;;;
2019/11/18 11:50:37;;;;;;;2.4;1.8;;;;;;;25.51;25.50391;930.7229;;;;
2019/11/18 11:53:01;;;;;;;2.9;1.7;;;;;;;26.45;23.71094;930.7739;;;;
2019/11/18 11:55:32;;;;;;;2.3;1.9;;;;;;;26.25;24.18555;930.7668;;;;
2019/11/18 11:57:56;;;;;;;2.4;2;;;;;;;25.35;25.29395;930.6981;;;;
2019/11/18 12:00:21;;;;;;;2.4;1.7;;;;;;;25.68;25.08789;930.7067;;;;
2019/11/18 12:02:50;;;;;;;2.2;1.8;;;;;;;26.41;24.43066;930.6817;;;;
2019/11/18 12:05:16;;;;;;;2.7;1.8;;;;;;;23.98;26.71191;930.5348;;;;
2019/11/18 12:07:49;;;;;;;2.2;2;;;;;;;21.51;30.25098;930.6027;;;;
2019/11/18 12:10:27;;;;;;;3;2.1;;;;;;;22.62;28.53125;930.5681;;;;
2019/11/18 12:12:53;;;;;;;2.9;2;;;;;;;24.19;26.42969;930.545;;;;
2019/11/18 12:15:26;;;;;;;2.4;1.8;;;;;;;25.42;24.73145;930.572;;;;
2019/11/18 12:18:06;;;;;;;2.1;1.9;;;;;;;24.37;26.22852;930.635;;;;
2019/11/18 12:20:32;;;;;;;3.8;2.2;;;;;;;23.02;28.35742;930.5888;;;;
2019/11/18 12:22:57;;;;;;;3.6;2.1;;;;;;;24.09;26.21191;930.5055;;;;
2019/11/18 12:25:36;;;;;;;2.4;1.8;;;;;;;24.95;25.51953;930.4345;;;;
2019/11/18 12:28:06;;;;;;;2.5;2;;;;;;;25.93;24.47559;930.5145;;;;
2019/11/18 12:30:36;;;;;;;3.1;1.6;;;;;;;26.28;23.2998;930.4888;;;;
2019/11/18 12:33:02;;;;;;;2.2;1.5;;;;;;;26.72;22.95508;930.4897;;;;
2019/11/18 12:35:41;;;;;;;1.9;1.4;;;;;;;26.16;22.19238;930.5762;;;;
2019/11/18 12:38:09;;;;;;;1.8;1;;;;;;;25.8;21.9502;930.5981;;;;
2019/11/18 12:40:51;;;;;;;1.7;0.8;;;;;;;25.28;22.60938;930.5677;;;;
2019/11/18 12:43:10;;;;;;;1.1;0.9;;;;;;;25.88;21.88379;930.6348;;;;
2019/11/18 12:45:44;;;;;;;1.1;1;;;;;;;26.45;21.70996;930.5926;;;;
2019/11/18 12:48:10;;;;;;;1.1;0.9;;;;;;;25.69;22.59473;930.6211;;;;
2019/11/18 12:50:41;;;;;;;1.2;1;;;;;;;25.25;22.78516;930.6531;;;;
2019/11/18 12:53:01;;;;;;;2.1;1.2;;;;;;;24.83;24.21484;930.6534;;;;
2019/11/18 12:55:33;;;;;;;1.3;1.2;;;;;;;25.79;22.50586;930.6891;;;;
2019/11/18 12:58:01;;;;;;;2.2;1.2;;;;;;;25.12;23.61621;930.7131;;;;
2019/11/18 13:00:33;;;;;;;1.4;1.3;;;;;;;25.13;23.80566;930.6877;;;;
2019/11/18 13:03:08;;;;;;;1.7;1.3;;;;;;;23.87;25.78711;930.6697;;;;
2019/11/18 13:05:31;;;;;;;1.7;1.4;;;;;;;23.7;26.09473;930.7668;;;;
2019/11/18 13:08:17;;;;;;;1.8;1.1;;;;;;;23.81;25.86621;930.7328;;;;
2019/11/18 13:10:52;;;;;;;2.1;1.3;;;;;;;24.33;25.20117;930.7363;;;;
2019/11/18 13:13:21;;;;;;;1.7;1.2;;;;;;;24.13;24.64844;930.6344;;;;
2019/11/18 13:15:48;;;;;;;1.6;1.2;;;;;;;23.4;25.95898;930.7966;;;;
2019/11/18 13:18:15;;;;;;;1.3;1;;;;;;;24.04;25.24316;930.8313;;;;
2019/11/18 13:23:18;;;;;;;1.2;1.1;;;;;;;25.2;23.77441;930.8416;;;;
2019/11/18 13:25:30;;;;;;;2;1;;;;;;;25.22;23.84668;930.9545;;;;
2019/11/18 13:28:03;;;;;;;1.6;1;;;;;;;24.99;23.88184;930.9805;;;;
2019/11/18 13:30:29;;;;;;;1.3;0.9;;;;;;;25.38;23.46582;930.9592;;;;
2019/11/18 13:32:59;;;;;;;1.7;1;;;;;;;25.09;24.34668;931.0016;;;;
2019/11/18 13:35:24;;;;;;;3.8;1.2;;;;;;;25.65;23.59668;931.0786;;;;
2019/11/18 13:37:52;;;;;;;1.9;1.2;;;;;;;25.21;23.89258;931.1287;;;;
2019/11/18 13:40:24;;;;;;;1.8;1.1;;;;;;;24.79;24.67285;931.1398;;;;
2019/11/18 13:42:50;;;;;;;1.5;1.1;;;;;;;24.84;24.65234;931.2172;;;;
2019/11/18 13:45:21;;;;;;;1.5;1;;;;;;;24.19;25.56934;931.1754;;;;
2019/11/18 13:47:52;;;;;;;1.2;1;;;;;;;24.02;25.24219;931.1968;;;;
2019/11/18 13:50:20;;;;;;;1.5;1;;;;;;;23.88;25.50488;931.1437;;;;
2019/11/18 13:53:06;;;;;;;3.1;1;;;;;;;23.06;27.32617;931.2261;;;;
2019/11/18 13:55:32;;;;;;;3.1;1.2;;;;;;;22.29;28.61621;931.31;;;;
2019/11/18 13:58:03;;;;;;;2.3;1.1;;;;;;;21.4;30.36133;931.2658;;;;
2019/11/18 14:00:28;;;;;;;3.8;1.2;;;;;;;19.17;34.64551;931.1976;;;;
2019/11/18 14:02:58;;;;;;;3;1.2;;;;;;;16.93;37.89844;931.2196;;;;
2019/11/18 14:06:12;;;;;;;2.1;1.1;;;;;;;16.55;38.73535;931.2227;;;;
2019/11/18 14:08:14;;;;;;;3.9;1.1;;;;;;;16.61;39.99023;931.2238;;;;
2019/11/18 14:10:49;;;;;;;2.8;1.8;;;;;;;16.8;39.99609;931.262;;;;
2019/11/18 14:13:18;;;;;;;2.8;1.5;;;;;;;16.99;38.93652;931.1722;;;;
2019/11/18 14:15:46;;;;;;;2.1;1.6;;;;;;;17.17;37.98926;931.1845;;;;
2019/11/18 14:18:07;;;;;;;2;1.2;;;;;;;17.77;37.04297;931.3201;;;;
2019/11/18 14:20:31;;;;;;;6.3;1.4;;;;;;;17.57;38.41797;931.4758;;;;
2019/11/18 14:23:12;;;;;;;11.1;2.6;;;;;;;16.54;42.6582;931.4707;;;;
2019/11/18 14:25:45;;;;;;;5.9;1.8;;;;;;;15.42;44.05078;931.6591;;;;
2019/11/18 14:28:40;;;;;;;6.9;2.9;;;;;;;14.4;47.20801;931.7;;;;
2019/11/18 14:30:43;;;;;;;8.9;3.1;;;;;;;13.65;49.9209;931.8044;;;;
2019/11/18 14:33:09;;;;;;;7;3.3;;;;;;;13.1;51.04102;931.7905;;;;
2019/11/18 14:37:19;;;;;;;7.5;3.6;;;;;;;12.62;52.49902;931.8289;;;;
2019/11/18 14:38:41;;;;;;;15.7;9.4;;;;;;;11.58;55.68066;931.9705;;;;
2019/11/18 14:41:09;;;;;;;5.1;3.3;;;;;;;10.58;57.41406;932.0204;;;;
2019/11/18 14:43:35;;;;;;;7.4;2.1;;;;;;;9.8;60.25;932.0248;;;;
2019/11/18 14:45:58;;;;;;;6.9;1.9;;;;;;;9.29;62.68555;932.0673;;;;
2019/11/18 14:48:28;;;;;;;5.9;2.7;;;;;;;8.95;64.7627;932.1414;;;;
2019/11/18 14:51:02;;;;;;;8.4;2.8;;;;;;;9.15;65.12207;932.1649;;;;
2019/11/18 14:56:13;;;;;;;4.1;2.3;;;;;;;9.29;64.9043;932.192;;;;
2019/11/18 14:58:49;;;;;;;5.7;2.5;;;;;;;9.21;65.0625;932.2087;;;;
2019/11/18 15:01:18;;;;;;;4.7;3.4;;;;;;;9.19;63.93262;932.1802;;;;
2019/11/18 15:03:46;;;;;;;4.7;3.5;;;;;;;8.99;64.4834;932.2075;;;;
2019/11/18 15:06:14;;;;;;;7;3.6;;;;;;;8.94;65.14746;932.2017;;;;
2019/11/18 15:08:45;;;;;;;4.9;4.1;;;;;;;8.76;68.25781;932.3137;;;;
2019/11/18 15:11:19;;;;;;;11.1;3.4;;;;;;;8.72;69.63867;932.3445;;;;
2019/11/18 15:13:48;;;;;;;4.2;1.8;;;;;;;8.41;70.42969;932.3887;;;;
2019/11/18 15:16:21;;;;;;;2.7;1.6;;;;;;;8.26;71.51953;932.3544;;;;
2019/11/18 15:19:03;;;;;;;4;1.8;;;;;;;8.26;70.64355;932.4305;;;;
2019/11/18 15:21:24;;;;;;;8.6;3.1;;;;;;;8.24;70.23145;932.501;;;;
2019/11/18 15:23:49;;;;;;;19.3;7.8;;;;;;;8.17;70.08398;932.5429;;;;
2019/11/18 15:26:20;;;;;;;24.7;11.7;;;;;;;7.87;70.44238;932.6119;;;;
2019/11/18 15:28:41;;;;;;;22.4;11.3;;;;;;;7.96;70.51465;932.6325;;;;
2019/11/18 15:31:08;;;;;;;19.5;10.6;;;;;;;8.11;70.9834;932.5725;;;;
2019/11/18 15:33:40;;;;;;;12.2;6.6;;;;;;;8.01;72.02246;932.5787;;;;
2019/11/18 15:36:17;;;;;;;7.1;5.1;;;;;;;7.96;72.36523;932.7048;;;;
2019/11/18 15:38:49;;;;;;;7.3;4.5;;;;;;;8.02;71.35254;932.731;;;;
2019/11/18 15:41:26;;;;;;;7.3;4.8;;;;;;;8.05;71.2334;932.759;;;;
2019/11/18 15:43:51;;;;;;;9.9;6.6;;;;;;;8.01;72.16992;932.7468;;;;
2019/11/18 15:46:16;;;;;;;11.5;6;;;;;;;7.98;72.14258;932.7739;;;;
2019/11/18 15:48:54;;;;;;;10.9;6.3;;;;;;;7.91;72.38965;932.8549;;;;
2019/11/18 15:51:18;;;;;;;10.2;5.7;;;;;;;7.92;72.46094;932.8312;;;;
2019/11/18 15:53:44;;;;;;;6.2;2.6;;;;;;;7.85;73.44727;932.9177;;;;
2019/11/18 15:56:16;;;;;;;7.4;3.7;;;;;;;7.87;73.11035;932.8925;;;;
2019/11/18 15:58:41;;;;;;;7.7;4.1;;;;;;;7.89;72.41113;932.8333;;;;
2019/11/18 16:01:18;;;;;;;19.7;10.2;;;;;;;7.83;73.76074;932.8682;;;;
2019/11/18 16:03:46;;;;;;;19.7;12.1;;;;;;;7.73;73.29102;932.943;;;;
2019/11/18 16:06:20;;;;;;;12.6;9.2;;;;;;;7.49;73.8623;932.9177;;;;